sensor_id;sensor_type;location;lat;lon;timestamp;P1;durP1;ratioP1;P2;durP2;ratioP2
46455;SDS011;32154;47.160;8.120;2022-08-19T00:03:08;7.47;;;6.20;;
46455;SDS011;32154;47.160;8.120;2022-08-19T00:08:11;10.07;;;7.15;;
46455;SDS011;32154;47.160;8.120;2022-08-19T00:13:14;8.68;;;6.18;;
46455;SDS011;32154;47.160;8.120;2022-08-19T00:18:16;10.93;;;7.43;;
46455;SDS011;32154;47.160;8.120;2022-08-19T00:23:18;11.10;;;7.18;;
46455;SDS011;32154;47.160;8.120;2022-08-19T00:28:22;9.85;;;6.95;;
46455;SDS011;32154;47.160;8.120;2022-08-19T00:33:43;9.30;;;6.15;;
46455;SDS011;32154;47.160;8.120;2022-08-19T00:38:46;8.77;;;6.45;;
46455;SDS011;32154;47.160;8.120;2022-08-19T00:44:12;8.60;;;6.00;;
46455;SDS011;32154;47.160;8.120;2022-08-19T00:49:29;6.47;;;4.90;;
46455;SDS011;32154;47.160;8.120;2022-08-19T00:54:37;6.53;;;5.03;;
46455;SDS011;32154;47.160;8.120;2022-08-19T00:59:44;7.47;;;5.65;;
46455;SDS011;32154;47.160;8.120;2022-08-19T01:05:05;7.43;;;5.57;;
46455;SDS011;32154;47.160;8.120;2022-08-19T01:10:15;9.27;;;5.90;;
46455;SDS011;32154;47.160;8.120;2022-08-19T01:15:22;10.48;;;7.57;;
46455;SDS011;32154;47.160;8.120;2022-08-19T01:20:30;10.13;;;7.65;;
46455;SDS011;32154;47.160;8.120;2022-08-19T01:25:50;9.50;;;6.30;;
46455;SDS011;32154;47.160;8.120;2022-08-19T01:30:57;10.48;;;6.65;;
46455;SDS011;32154;47.160;8.120;2022-08-19T01:36:04;7.20;;;5.70;;
46455;SDS011;32154;47.160;8.120;2022-08-19T01:41:27;8.80;;;5.97;;
46455;SDS011;32154;47.160;8.120;2022-08-19T01:46:30;10.20;;;6.70;;
46455;SDS011;32154;47.160;8.120;2022-08-19T01:51:52;11.73;;;6.65;;
46455;SDS011;32154;47.160;8.120;2022-08-19T01:57:00;9.70;;;6.63;;
46455;SDS011;32154;47.160;8.120;2022-08-19T02:02:14;9.98;;;6.32;;
46455;SDS011;32154;47.160;8.120;2022-08-19T02:07:35;11.20;;;7.82;;
46455;SDS011;32154;47.160;8.120;2022-08-19T02:12:42;10.70;;;8.32;;
46455;SDS011;32154;47.160;8.120;2022-08-19T02:17:45;11.50;;;7.50;;
46455;SDS011;32154;47.160;8.120;2022-08-19T02:23:12;10.30;;;6.57;;
46455;SDS011;32154;47.160;8.120;2022-08-19T02:28:19;9.52;;;6.70;;
46455;SDS011;32154;47.160;8.120;2022-08-19T02:33:23;9.40;;;6.70;;
46455;SDS011;32154;47.160;8.120;2022-08-19T02:38:44;7.28;;;5.00;;
46455;SDS011;32154;47.160;8.120;2022-08-19T02:43:56;6.88;;;5.20;;
46455;SDS011;32154;47.160;8.120;2022-08-19T02:49:21;8.05;;;5.78;;
46455;SDS011;32154;47.160;8.120;2022-08-19T02:54:23;5.72;;;4.50;;
46455;SDS011;32154;47.160;8.120;2022-08-19T02:59:26;10.73;;;5.65;;
46455;SDS011;32154;47.160;8.120;2022-08-19T03:04:32;8.90;;;5.97;;
46455;SDS011;32154;47.160;8.120;2022-08-19T03:09:36;11.93;;;6.07;;
46455;SDS011;32154;47.160;8.120;2022-08-19T03:20:06;9.82;;;6.57;;
46455;SDS011;32154;47.160;8.120;2022-08-19T03:25:17;8.82;;;5.93;;
46455;SDS011;32154;47.160;8.120;2022-08-19T03:30:20;9.80;;;6.07;;
46455;SDS011;32154;47.160;8.120;2022-08-19T03:35:24;9.20;;;6.90;;
46455;SDS011;32154;47.160;8.120;2022-08-19T03:40:46;8.75;;;6.05;;
46455;SDS011;32154;47.160;8.120;2022-08-19T03:45:49;10.88;;;6.35;;
46455;SDS011;32154;47.160;8.120;2022-08-19T03:50:51;7.03;;;5.43;;
46455;SDS011;32154;47.160;8.120;2022-08-19T03:55:54;9.55;;;6.45;;
46455;SDS011;32154;47.160;8.120;2022-08-19T04:00:58;9.30;;;6.38;;
46455;SDS011;32154;47.160;8.120;2022-08-19T04:11:14;9.27;;;7.22;;
46455;SDS011;32154;47.160;8.120;2022-08-19T04:16:20;8.45;;;6.15;;
46455;SDS011;32154;47.160;8.120;2022-08-19T04:21:35;10.75;;;7.22;;
46455;SDS011;32154;47.160;8.120;2022-08-19T04:26:39;7.15;;;4.88;;
46455;SDS011;32154;47.160;8.120;2022-08-19T04:31:43;8.63;;;5.20;;
46455;SDS011;32154;47.160;8.120;2022-08-19T04:36:49;7.68;;;5.13;;
46455;SDS011;32154;47.160;8.120;2022-08-19T04:41:54;7.18;;;5.70;;
46455;SDS011;32154;47.160;8.120;2022-08-19T04:46:57;6.90;;;5.13;;
46455;SDS011;32154;47.160;8.120;2022-08-19T04:52:00;9.50;;;5.95;;
46455;SDS011;32154;47.160;8.120;2022-08-19T04:57:51;9.65;;;6.30;;
46455;SDS011;32154;47.160;8.120;2022-08-19T05:02:54;9.90;;;7.13;;
46455;SDS011;32154;47.160;8.120;2022-08-19T05:07:56;12.45;;;7.43;;
46455;SDS011;32154;47.160;8.120;2022-08-19T05:12:58;12.55;;;7.32;;
46455;SDS011;32154;47.160;8.120;2022-08-19T05:18:02;8.77;;;6.57;;
46455;SDS011;32154;47.160;8.120;2022-08-19T05:23:31;8.63;;;5.78;;
46455;SDS011;32154;47.160;8.120;2022-08-19T05:28:34;10.50;;;7.18;;
46455;SDS011;32154;47.160;8.120;2022-08-19T05:33:37;9.23;;;6.78;;
46455;SDS011;32154;47.160;8.120;2022-08-19T05:50:43;8.00;;;6.18;;
46455;SDS011;32154;47.160;8.120;2022-08-19T05:55:45;8.80;;;6.40;;
46455;SDS011;32154;47.160;8.120;2022-08-19T06:00:48;9.52;;;7.00;;
46455;SDS011;32154;47.160;8.120;2022-08-19T06:05:51;9.45;;;6.53;;
46455;SDS011;32154;47.160;8.120;2022-08-19T06:11:13;11.32;;;7.65;;
46455;SDS011;32154;47.160;8.120;2022-08-19T06:16:17;11.13;;;7.50;;
46455;SDS011;32154;47.160;8.120;2022-08-19T06:21:22;10.20;;;6.90;;
46455;SDS011;32154;47.160;8.120;2022-08-19T06:26:54;10.38;;;6.13;;
46455;SDS011;32154;47.160;8.120;2022-08-19T06:32:21;11.40;;;6.50;;
46455;SDS011;32154;47.160;8.120;2022-08-19T06:37:23;7.53;;;5.90;;
46455;SDS011;32154;47.160;8.120;2022-08-19T06:42:26;9.82;;;7.10;;
46455;SDS011;32154;47.160;8.120;2022-08-19T06:47:31;9.95;;;6.15;;
46455;SDS011;32154;47.160;8.120;2022-08-19T06:52:52;6.60;;;4.90;;
46455;SDS011;32154;47.160;8.120;2022-08-19T06:57:54;5.93;;;4.18;;
46455;SDS011;32154;47.160;8.120;2022-08-19T07:02:58;5.10;;;3.75;;
46455;SDS011;32154;47.160;8.120;2022-08-19T07:08:05;6.32;;;4.78;;
46455;SDS011;32154;47.160;8.120;2022-08-19T07:13:26;5.97;;;4.65;;
46455;SDS011;32154;47.160;8.120;2022-08-19T07:18:29;6.97;;;3.72;;
46455;SDS011;32154;47.160;8.120;2022-08-19T07:23:32;7.05;;;4.05;;
46455;SDS011;32154;47.160;8.120;2022-08-19T07:28:35;3.30;;;2.50;;
46455;SDS011;32154;47.160;8.120;2022-08-19T07:33:47;6.85;;;3.97;;
46455;SDS011;32154;47.160;8.120;2022-08-19T07:39:17;3.90;;;3.00;;
46455;SDS011;32154;47.160;8.120;2022-08-19T07:44:31;3.53;;;2.78;;
46455;SDS011;32154;47.160;8.120;2022-08-19T07:49:53;4.55;;;3.30;;
46455;SDS011;32154;47.160;8.120;2022-08-19T07:54:56;6.28;;;3.60;;
46455;SDS011;32154;47.160;8.120;2022-08-19T07:59:58;4.45;;;3.03;;
46455;SDS011;32154;47.160;8.120;2022-08-19T08:05:00;6.43;;;4.53;;
46455;SDS011;32154;47.160;8.120;2022-08-19T08:10:06;6.45;;;4.05;;
46455;SDS011;32154;47.160;8.120;2022-08-19T08:15:40;7.43;;;4.28;;
46455;SDS011;32154;47.160;8.120;2022-08-19T08:20:48;5.20;;;3.70;;
46455;SDS011;32154;47.160;8.120;2022-08-19T08:25:55;5.05;;;3.50;;
46455;SDS011;32154;47.160;8.120;2022-08-19T08:31:00;3.67;;;2.70;;
46455;SDS011;32154;47.160;8.120;2022-08-19T08:36:10;4.60;;;3.45;;
46455;SDS011;32154;47.160;8.120;2022-08-19T08:41:44;5.43;;;3.28;;
46455;SDS011;32154;47.160;8.120;2022-08-19T08:46:55;3.85;;;3.00;;
46455;SDS011;32154;47.160;8.120;2022-08-19T08:52:11;4.82;;;3.50;;
46455;SDS011;32154;47.160;8.120;2022-08-19T09:02:52;5.38;;;3.83;;
46455;SDS011;32154;47.160;8.120;2022-08-19T09:08:47;7.13;;;4.32;;
46455;SDS011;32154;47.160;8.120;2022-08-19T09:19:28;6.20;;;3.67;;
46455;SDS011;32154;47.160;8.120;2022-08-19T09:24:30;7.38;;;4.32;;
46455;SDS011;32154;47.160;8.120;2022-08-19T09:29:33;6.47;;;4.10;;
46455;SDS011;32154;47.160;8.120;2022-08-19T09:34:36;6.03;;;4.35;;
46455;SDS011;32154;47.160;8.120;2022-08-19T09:39:44;7.03;;;4.78;;
46455;SDS011;32154;47.160;8.120;2022-08-19T09:44:50;8.63;;;5.93;;
46455;SDS011;32154;47.160;8.120;2022-08-19T09:49:52;8.30;;;5.45;;
46455;SDS011;32154;47.160;8.120;2022-08-19T09:55:16;10.05;;;5.45;;
46455;SDS011;32154;47.160;8.120;2022-08-19T10:00:37;6.50;;;5.38;;
46455;SDS011;32154;47.160;8.120;2022-08-19T10:06:02;7.78;;;4.65;;
46455;SDS011;32154;47.160;8.120;2022-08-19T10:11:15;8.45;;;5.35;;
46455;SDS011;32154;47.160;8.120;2022-08-19T10:16:56;8.65;;;5.70;;
46455;SDS011;32154;47.160;8.120;2022-08-19T10:22:01;9.32;;;6.38;;
46455;SDS011;32154;47.160;8.120;2022-08-19T10:27:05;7.75;;;5.25;;
46455;SDS011;32154;47.160;8.120;2022-08-19T10:32:28;8.18;;;5.50;;
46455;SDS011;32154;47.160;8.120;2022-08-19T10:37:53;7.00;;;4.70;;
46455;SDS011;32154;47.160;8.120;2022-08-19T10:43:20;8.73;;;5.20;;
46455;SDS011;32154;47.160;8.120;2022-08-19T10:48:23;8.75;;;6.28;;
46455;SDS011;32154;47.160;8.120;2022-08-19T10:53:28;10.80;;;6.95;;
46455;SDS011;32154;47.160;8.120;2022-08-19T10:58:51;9.38;;;6.18;;
46455;SDS011;32154;47.160;8.120;2022-08-19T11:04:12;8.57;;;5.93;;
46455;SDS011;32154;47.160;8.120;2022-08-19T11:09:18;8.63;;;6.20;;
46455;SDS011;32154;47.160;8.120;2022-08-19T11:14:24;9.98;;;6.95;;
46455;SDS011;32154;47.160;8.120;2022-08-19T11:19:33;8.30;;;6.28;;
46455;SDS011;32154;47.160;8.120;2022-08-19T11:24:36;10.65;;;7.38;;
46455;SDS011;32154;47.160;8.120;2022-08-19T11:29:39;11.20;;;7.05;;
46455;SDS011;32154;47.160;8.120;2022-08-19T11:34:42;9.32;;;6.50;;
46455;SDS011;32154;47.160;8.120;2022-08-19T11:39:44;8.25;;;6.50;;
46455;SDS011;32154;47.160;8.120;2022-08-19T11:44:55;10.82;;;7.15;;
46455;SDS011;32154;47.160;8.120;2022-08-19T11:49:57;9.98;;;6.60;;
46455;SDS011;32154;47.160;8.120;2022-08-19T11:55:00;10.30;;;6.93;;
46455;SDS011;32154;47.160;8.120;2022-08-19T12:00:03;6.93;;;5.93;;
46455;SDS011;32154;47.160;8.120;2022-08-19T12:05:07;6.95;;;5.28;;
46455;SDS011;32154;47.160;8.120;2022-08-19T12:10:13;9.65;;;6.63;;
46455;SDS011;32154;47.160;8.120;2022-08-19T12:15:19;9.45;;;7.00;;
46455;SDS011;32154;47.160;8.120;2022-08-19T12:20:41;10.73;;;7.25;;
46455;SDS011;32154;47.160;8.120;2022-08-19T12:25:45;9.05;;;6.72;;
46455;SDS011;32154;47.160;8.120;2022-08-19T12:30:52;9.50;;;6.38;;
46455;SDS011;32154;47.160;8.120;2022-08-19T12:35:54;8.25;;;6.53;;
46455;SDS011;32154;47.160;8.120;2022-08-19T12:41:23;12.55;;;7.05;;
46455;SDS011;32154;47.160;8.120;2022-08-19T12:46:26;11.25;;;7.10;;
46455;SDS011;32154;47.160;8.120;2022-08-19T12:51:28;12.00;;;7.78;;
46455;SDS011;32154;47.160;8.120;2022-08-19T12:56:31;16.40;;;9.43;;
46455;SDS011;32154;47.160;8.120;2022-08-19T13:01:37;13.20;;;9.73;;
46455;SDS011;32154;47.160;8.120;2022-08-19T13:06:43;12.73;;;7.85;;
46455;SDS011;32154;47.160;8.120;2022-08-19T13:11:45;11.40;;;8.68;;
46455;SDS011;32154;47.160;8.120;2022-08-19T13:17:06;15.02;;;9.68;;
46455;SDS011;32154;47.160;8.120;2022-08-19T13:22:09;12.15;;;8.45;;
46455;SDS011;32154;47.160;8.120;2022-08-19T13:27:34;11.02;;;7.65;;
46455;SDS011;32154;47.160;8.120;2022-08-19T13:32:37;10.02;;;6.68;;
46455;SDS011;32154;47.160;8.120;2022-08-19T13:37:43;11.25;;;8.52;;
46455;SDS011;32154;47.160;8.120;2022-08-19T13:42:46;11.48;;;8.43;;
46455;SDS011;32154;47.160;8.120;2022-08-19T13:48:08;11.90;;;8.30;;
46455;SDS011;32154;47.160;8.120;2022-08-19T13:53:11;12.70;;;8.68;;
46455;SDS011;32154;47.160;8.120;2022-08-19T13:58:15;10.85;;;7.15;;
46455;SDS011;32154;47.160;8.120;2022-08-19T14:03:37;12.23;;;7.32;;
46455;SDS011;32154;47.160;8.120;2022-08-19T14:08:40;12.90;;;8.27;;
46455;SDS011;32154;47.160;8.120;2022-08-19T14:13:47;11.35;;;8.68;;
46455;SDS011;32154;47.160;8.120;2022-08-19T14:19:09;12.60;;;9.15;;
46455;SDS011;32154;47.160;8.120;2022-08-19T14:24:12;11.02;;;8.15;;
46455;SDS011;32154;47.160;8.120;2022-08-19T14:29:15;10.55;;;8.50;;
46455;SDS011;32154;47.160;8.120;2022-08-19T14:34:22;12.40;;;8.43;;
46455;SDS011;32154;47.160;8.120;2022-08-19T14:39:42;11.30;;;8.52;;
46455;SDS011;32154;47.160;8.120;2022-08-19T14:44:46;14.00;;;8.82;;
46455;SDS011;32154;47.160;8.120;2022-08-19T14:49:48;10.90;;;8.35;;
46455;SDS011;32154;47.160;8.120;2022-08-19T14:55:17;13.43;;;7.90;;
46455;SDS011;32154;47.160;8.120;2022-08-19T15:00:20;13.23;;;9.52;;
46455;SDS011;32154;47.160;8.120;2022-08-19T15:05:26;11.05;;;7.80;;
46455;SDS011;32154;47.160;8.120;2022-08-19T15:10:28;11.63;;;8.30;;
46455;SDS011;32154;47.160;8.120;2022-08-19T15:15:31;11.95;;;9.27;;
46455;SDS011;32154;47.160;8.120;2022-08-19T15:20:52;10.27;;;7.20;;
46455;SDS011;32154;47.160;8.120;2022-08-19T15:26:02;10.75;;;6.70;;
46455;SDS011;32154;47.160;8.120;2022-08-19T15:31:06;9.65;;;7.45;;
46455;SDS011;32154;47.160;8.120;2022-08-19T15:36:19;12.02;;;8.35;;
46455;SDS011;32154;47.160;8.120;2022-08-19T15:41:25;10.80;;;7.63;;
46455;SDS011;32154;47.160;8.120;2022-08-19T15:46:30;11.25;;;8.60;;
46455;SDS011;32154;47.160;8.120;2022-08-19T15:51:37;9.52;;;6.45;;
46455;SDS011;32154;47.160;8.120;2022-08-19T15:56:42;10.90;;;8.20;;
46455;SDS011;32154;47.160;8.120;2022-08-19T16:01:45;11.43;;;8.57;;
46455;SDS011;32154;47.160;8.120;2022-08-19T16:07:16;10.60;;;8.18;;
46455;SDS011;32154;47.160;8.120;2022-08-19T16:12:43;9.63;;;7.95;;
46455;SDS011;32154;47.160;8.120;2022-08-19T16:17:47;11.68;;;8.35;;
46455;SDS011;32154;47.160;8.120;2022-08-19T16:22:58;11.00;;;8.68;;
46455;SDS011;32154;47.160;8.120;2022-08-19T16:28:03;10.73;;;6.70;;
46455;SDS011;32154;47.160;8.120;2022-08-19T16:33:09;9.68;;;7.30;;
46455;SDS011;32154;47.160;8.120;2022-08-19T16:38:11;11.82;;;7.43;;
46455;SDS011;32154;47.160;8.120;2022-08-19T16:43:15;10.93;;;7.43;;
46455;SDS011;32154;47.160;8.120;2022-08-19T16:48:18;11.80;;;8.30;;
46455;SDS011;32154;47.160;8.120;2022-08-19T16:53:22;9.75;;;7.15;;
46455;SDS011;32154;47.160;8.120;2022-08-19T16:58:30;10.50;;;7.47;;
46455;SDS011;32154;47.160;8.120;2022-08-19T17:03:33;11.15;;;7.13;;
46455;SDS011;32154;47.160;8.120;2022-08-19T17:08:58;11.70;;;8.10;;
46455;SDS011;32154;47.160;8.120;2022-08-19T17:14:02;10.23;;;8.05;;
46455;SDS011;32154;47.160;8.120;2022-08-19T17:19:24;9.57;;;7.43;;
46455;SDS011;32154;47.160;8.120;2022-08-19T17:24:28;10.88;;;8.32;;
46455;SDS011;32154;47.160;8.120;2022-08-19T17:29:31;10.10;;;7.63;;
46455;SDS011;32154;47.160;8.120;2022-08-19T17:34:34;12.68;;;8.77;;
46455;SDS011;32154;47.160;8.120;2022-08-19T17:39:37;10.93;;;7.70;;
46455;SDS011;32154;47.160;8.120;2022-08-19T17:44:40;10.68;;;8.70;;
46455;SDS011;32154;47.160;8.120;2022-08-19T17:49:45;10.80;;;8.32;;
46455;SDS011;32154;47.160;8.120;2022-08-19T17:54:47;13.63;;;8.15;;
46455;SDS011;32154;47.160;8.120;2022-08-19T18:00:14;11.05;;;7.25;;
46455;SDS011;32154;47.160;8.120;2022-08-19T18:05:23;11.10;;;8.10;;
46455;SDS011;32154;47.160;8.120;2022-08-19T18:10:29;11.63;;;8.52;;
46455;SDS011;32154;47.160;8.120;2022-08-19T18:15:54;13.23;;;9.02;;
46455;SDS011;32154;47.160;8.120;2022-08-19T18:20:57;10.00;;;7.28;;
46455;SDS011;32154;47.160;8.120;2022-08-19T18:26:01;11.45;;;8.95;;
46455;SDS011;32154;47.160;8.120;2022-08-19T18:31:09;12.55;;;9.13;;
46455;SDS011;32154;47.160;8.120;2022-08-19T18:36:19;15.55;;;10.88;;
46455;SDS011;32154;47.160;8.120;2022-08-19T18:41:41;11.18;;;7.20;;
46455;SDS011;32154;47.160;8.120;2022-08-19T18:46:45;13.18;;;7.88;;
46455;SDS011;32154;47.160;8.120;2022-08-19T18:51:47;11.88;;;8.25;;
46455;SDS011;32154;47.160;8.120;2022-08-19T18:56:50;11.07;;;7.82;;
46455;SDS011;32154;47.160;8.120;2022-08-19T19:01:52;13.70;;;8.75;;
46455;SDS011;32154;47.160;8.120;2022-08-19T19:06:57;13.02;;;8.50;;
46455;SDS011;32154;47.160;8.120;2022-08-19T19:12:02;12.75;;;8.40;;
46455;SDS011;32154;47.160;8.120;2022-08-19T19:17:11;10.75;;;7.78;;
46455;SDS011;32154;47.160;8.120;2022-08-19T19:22:16;14.73;;;10.32;;
46455;SDS011;32154;47.160;8.120;2022-08-19T19:27:39;10.95;;;8.23;;
46455;SDS011;32154;47.160;8.120;2022-08-19T19:33:00;10.98;;;8.20;;
46455;SDS011;32154;47.160;8.120;2022-08-19T19:38:03;10.30;;;6.78;;
46455;SDS011;32154;47.160;8.120;2022-08-19T19:43:06;8.90;;;7.07;;
46455;SDS011;32154;47.160;8.120;2022-08-19T19:48:10;10.65;;;7.63;;
46455;SDS011;32154;47.160;8.120;2022-08-19T19:53:12;11.23;;;7.78;;
46455;SDS011;32154;47.160;8.120;2022-08-19T19:58:15;8.18;;;6.25;;
46455;SDS011;32154;47.160;8.120;2022-08-19T20:08:45;8.70;;;7.00;;
46455;SDS011;32154;47.160;8.120;2022-08-19T20:14:16;11.52;;;7.40;;
46455;SDS011;32154;47.160;8.120;2022-08-19T20:19:30;10.60;;;7.43;;
46455;SDS011;32154;47.160;8.120;2022-08-19T20:24:34;8.90;;;6.90;;
46455;SDS011;32154;47.160;8.120;2022-08-19T20:29:37;9.63;;;7.30;;
46455;SDS011;32154;47.160;8.120;2022-08-19T20:34:44;12.07;;;7.67;;
46455;SDS011;32154;47.160;8.120;2022-08-19T20:39:47;10.57;;;7.47;;
46455;SDS011;32154;47.160;8.120;2022-08-19T20:44:50;9.40;;;7.05;;
46455;SDS011;32154;47.160;8.120;2022-08-19T20:50:12;9.07;;;6.85;;
46455;SDS011;32154;47.160;8.120;2022-08-19T20:55:15;8.13;;;6.65;;
46455;SDS011;32154;47.160;8.120;2022-08-19T21:00:19;11.00;;;8.30;;
46455;SDS011;32154;47.160;8.120;2022-08-19T21:05:22;9.75;;;6.93;;
46455;SDS011;32154;47.160;8.120;2022-08-19T21:10:49;8.32;;;6.53;;
46455;SDS011;32154;47.160;8.120;2022-08-19T21:16:12;10.18;;;6.78;;
46455;SDS011;32154;47.160;8.120;2022-08-19T21:21:16;9.50;;;6.55;;
46455;SDS011;32154;47.160;8.120;2022-08-19T21:26:19;10.82;;;6.82;;
46455;SDS011;32154;47.160;8.120;2022-08-19T21:31:21;11.57;;;7.22;;
46455;SDS011;32154;47.160;8.120;2022-08-19T21:36:42;7.78;;;6.32;;
46455;SDS011;32154;47.160;8.120;2022-08-19T21:41:46;7.93;;;6.10;;
46455;SDS011;32154;47.160;8.120;2022-08-19T21:46:48;8.93;;;6.20;;
46455;SDS011;32154;47.160;8.120;2022-08-19T21:51:51;8.80;;;6.22;;
46455;SDS011;32154;47.160;8.120;2022-08-19T21:56:53;8.98;;;6.05;;
46455;SDS011;32154;47.160;8.120;2022-08-19T22:01:56;9.55;;;6.70;;
46455;SDS011;32154;47.160;8.120;2022-08-19T22:07:42;7.88;;;5.93;;
46455;SDS011;32154;47.160;8.120;2022-08-19T22:12:44;8.10;;;5.53;;
46455;SDS011;32154;47.160;8.120;2022-08-19T22:17:53;7.68;;;4.97;;
46455;SDS011;32154;47.160;8.120;2022-08-19T22:22:57;10.07;;;5.72;;
46455;SDS011;32154;47.160;8.120;2022-08-19T22:28:03;8.15;;;5.85;;
46455;SDS011;32154;47.160;8.120;2022-08-19T22:33:13;9.88;;;6.07;;
46455;SDS011;32154;47.160;8.120;2022-08-19T22:38:18;10.65;;;6.00;;
46455;SDS011;32154;47.160;8.120;2022-08-19T22:43:21;9.48;;;6.28;;
46455;SDS011;32154;47.160;8.120;2022-08-19T22:48:45;7.82;;;5.18;;
46455;SDS011;32154;47.160;8.120;2022-08-19T22:54:02;8.25;;;5.68;;
46455;SDS011;32154;47.160;8.120;2022-08-19T22:59:06;10.85;;;6.32;;
46455;SDS011;32154;47.160;8.120;2022-08-19T23:04:11;9.88;;;6.55;;
46455;SDS011;32154;47.160;8.120;2022-08-19T23:09:13;8.05;;;5.30;;
46455;SDS011;32154;47.160;8.120;2022-08-19T23:14:20;9.07;;;6.97;;
46455;SDS011;32154;47.160;8.120;2022-08-19T23:19:46;8.95;;;6.68;;
46455;SDS011;32154;47.160;8.120;2022-08-19T23:25:15;9.32;;;6.10;;
46455;SDS011;32154;47.160;8.120;2022-08-19T23:30:20;10.57;;;6.10;;
46455;SDS011;32154;47.160;8.120;2022-08-19T23:35:23;12.43;;;6.72;;
46455;SDS011;32154;47.160;8.120;2022-08-19T23:40:47;10.13;;;5.53;;
46455;SDS011;32154;47.160;8.120;2022-08-19T23:45:50;17.20;;;5.82;;
46455;SDS011;32154;47.160;8.120;2022-08-19T23:50:53;12.18;;;7.63;;
46455;SDS011;32154;47.160;8.120;2022-08-19T23:55:56;9.25;;;6.60;;
